Time;durP1;ratioP1;P1;durP2;ratioP2;P2;SDS_P1;SDS_P2;PMS_P1;PMS_P2;Temp;Humidity;BMP_temperature;BMP_pressure;BME280_temperature;BME280_humidity;BME280_pressure;Samples;Min_cycle;Max_cycle;Signal;HPM_P1;HPM_P2
2022/03/26 00:01:36;;;;;;;29.10;19.17;;;8.30;72.20;;;;;;5064344;28;20209;-62
2022/03/26 00:04:01;;;;;;;31.70;21.70;;;8.40;73.10;;;;;;5054661;28;20193;-62
2022/03/26 00:06:27;;;;;;;27.20;19.87;;;8.10;72.60;;;;;;5065573;28;20275;-62
2022/03/26 00:08:52;;;;;;;31.70;22.07;;;8.20;73.30;;;;;;5068714;28;20669;-62
2022/03/26 00:11:18;;;;;;;29.20;20.30;;;8.40;74.60;;;;;;5061458;28;20209;-59
2022/03/26 00:13:43;;;;;;;29.43;19.53;;;7.80;73.20;;;;;;5065678;28;20246;-61
2022/03/26 00:16:10;;;;;;;27.20;18.10;;;8.00;74.00;;;;;;5037542;28;20403;-61
2022/03/26 00:18:35;;;;;;;32.67;20.17;;;7.60;74.00;;;;;;5055053;28;20182;-61
2022/03/26 00:21:01;;;;;;;27.80;18.47;;;8.40;75.40;;;;;;5058391;28;20560;-61
2022/03/26 00:23:26;;;;;;;26.20;19.33;;;7.90;75.10;;;;;;5059849;28;20269;-61
2022/03/26 00:25:52;;;;;;;26.80;19.03;;;7.90;75.30;;;;;;5059837;28;20177;-61
2022/03/26 00:28:18;;;;;;;28.20;19.07;;;7.70;75.00;;;;;;5059478;28;20354;-61
2022/03/26 00:30:43;;;;;;;29.07;19.60;;;8.00;75.90;;;;;;5063831;28;20444;-61
2022/03/26 00:33:09;;;;;;;27.20;19.47;;;8.20;76.80;;;;;;5064090;28;20270;-61
2022/03/26 00:35:35;;;;;;;25.17;18.43;;;7.60;76.00;;;;;;5059366;28;20177;-61
2022/03/26 00:38:01;;;;;;;26.83;19.98;;;8.00;76.50;;;;;;5062732;28;20185;-61
2022/03/26 00:40:27;;;;;;;23.90;18.40;;;8.10;76.40;;;;;;5066225;28;20238;-60
2022/03/26 00:42:53;;;;;;;25.38;18.52;;;8.10;76.60;;;;;;5068825;28;20211;-60
2022/03/26 00:45:19;;;;;;;31.37;21.60;;;7.80;76.30;;;;;;5060712;28;20185;-61
2022/03/26 00:47:45;;;;;;;25.80;19.17;;;7.70;76.70;;;;;;5059138;28;20204;-61
2022/03/26 00:50:10;;;;;;;25.40;18.40;;;7.90;77.40;;;;;;5059331;28;20642;-60
2022/03/26 00:52:36;;;;;;;24.43;18.33;;;7.60;77.10;;;;;;5058788;28;20262;-61
2022/03/26 00:55:03;;;;;;;25.77;18.45;;;7.70;78.10;;;;;;5065924;28;20438;-61
2022/03/26 00:57:29;;;;;;;26.90;18.70;;;7.40;77.60;;;;;;5063343;28;20189;-61
2022/03/26 00:59:54;;;;;;;26.33;20.30;;;7.40;78.40;;;;;;5051395;28;20184;-61
2022/03/26 01:02:20;;;;;;;23.63;17.90;;;7.50;78.70;;;;;;5060718;28;20208;-61
2022/03/26 01:04:45;;;;;;;28.00;18.93;;;7.00;78.40;;;;;;5057191;28;20182;-61
2022/03/26 01:07:11;;;;;;;26.70;18.80;;;7.00;78.50;;;;;;5059044;28;20188;-60
2022/03/26 01:09:37;;;;;;;26.33;18.20;;;7.60;79.60;;;;;;5060930;28;20518;-61
2022/03/26 01:12:02;;;;;;;32.27;20.17;;;7.40;79.60;;;;;;5058544;28;20209;-60
2022/03/26 01:14:28;;;;;;;31.37;19.20;;;7.40;80.10;;;;;;5053358;28;20185;-61
2022/03/26 01:16:54;;;;;;;26.98;19.10;;;7.30;81.00;;;;;;5041077;28;20821;-61
2022/03/26 01:19:20;;;;;;;28.50;18.83;;;7.20;80.60;;;;;;5056884;28;20185;-61
2022/03/26 01:21:45;;;;;;;27.10;18.67;;;7.20;80.30;;;;;;5064816;28;20280;-61
2022/03/26 01:24:11;;;;;;;23.90;18.43;;;6.80;79.80;;;;;;5059772;28;20264;-67
2022/03/26 01:26:36;;;;;;;29.90;20.43;;;7.50;81.20;;;;;;5060958;28;20609;-61
2022/03/26 01:29:02;;;;;;;27.97;19.40;;;7.40;81.50;;;;;;5058645;28;20672;-61
2022/03/26 01:31:28;;;;;;;28.27;18.60;;;6.50;81.60;;;;;;5060957;28;20217;-61
2022/03/26 01:33:54;;;;;;;27.07;18.10;;;7.20;82.70;;;;;;5064031;28;20184;-61
2022/03/26 01:36:19;;;;;;;29.15;20.15;;;6.90;82.40;;;;;;5058107;28;20173;-61
2022/03/26 01:38:45;;;;;;;28.30;19.57;;;7.10;82.90;;;;;;5042183;28;20181;-61
2022/03/26 01:41:11;;;;;;;31.87;19.20;;;6.60;83.00;;;;;;5039263;28;20197;-61
2022/03/26 01:43:39;;;;;;;28.07;19.27;;;6.30;82.80;;;;;;5064719;28;20187;-61
2022/03/26 01:46:04;;;;;;;26.83;19.98;;;6.30;83.40;;;;;;5059692;28;20443;-61
2022/03/26 01:48:30;;;;;;;28.70;19.70;;;6.40;83.70;;;;;;5042750;28;20186;-61
2022/03/26 01:50:55;;;;;;;25.50;18.27;;;7.00;84.80;;;;;;5052095;28;20264;-61
2022/03/26 01:53:21;;;;;;;26.90;18.87;;;6.80;84.60;;;;;;5053152;28;20631;-61
2022/03/26 01:55:49;;;;;;;26.13;18.93;;;7.00;85.30;;;;;;5058312;28;20189;-61
2022/03/26 01:58:15;;;;;;;25.13;18.48;;;6.80;85.20;;;;;;5059110;28;20200;-60
2022/03/26 02:00:41;;;;;;;28.03;18.63;;;6.70;85.50;;;;;;5062249;28;20220;-61
2022/03/26 02:03:08;;;;;;;28.60;19.27;;;6.80;85.70;;;;;;5058119;28;20217;-61
2022/03/26 02:05:34;;;;;;;28.73;19.88;;;6.70;85.80;;;;;;5055333;28;20596;-60
2022/03/26 02:08:01;;;;;;;25.00;19.40;;;6.70;86.00;;;;;;5058635;28;20228;-60
2022/03/26 02:10:27;;;;;;;27.45;19.38;;;7.00;87.20;;;;;;5058671;28;20185;-60
2022/03/26 02:12:52;;;;;;;28.50;19.23;;;6.70;87.50;;;;;;5054626;28;20275;-61
2022/03/26 02:15:18;;;;;;;25.07;19.77;;;6.80;88.40;;;;;;5057047;28;20180;-60
2022/03/26 02:17:44;;;;;;;27.10;19.77;;;6.60;87.30;;;;;;5053344;28;20261;-61
2022/03/26 02:20:12;;;;;;;26.30;19.60;;;6.50;87.10;;;;;;5052043;28;20466;-60
2022/03/26 02:22:39;;;;;;;28.10;20.98;;;6.60;87.50;;;;;;5065275;28;20548;-61
2022/03/26 02:25:06;;;;;;;26.02;20.15;;;6.70;88.00;;;;;;5055826;28;20258;-61
2022/03/26 02:27:34;;;;;;;28.77;19.02;;;6.60;88.00;;;;;;5052787;28;20562;-60
2022/03/26 02:30:00;;;;;;;26.50;18.52;;;6.80;89.20;;;;;;5056966;28;20709;-60
2022/03/26 02:32:28;;;;;;;30.57;20.37;;;6.40;89.80;;;;;;5057066;28;20303;-60
2022/03/26 02:34:54;;;;;;;31.73;20.20;;;6.40;89.70;;;;;;5057199;28;20765;-60
2022/03/26 02:37:20;;;;;;;27.30;19.65;;;6.40;89.70;;;;;;5063310;28;20189;-61
2022/03/26 02:39:46;;;;;;;28.33;20.40;;;6.10;89.60;;;;;;5057450;28;20210;-60
2022/03/26 02:42:13;;;;;;;30.83;19.83;;;6.30;90.00;;;;;;5059628;28;20290;-60
2022/03/26 02:44:39;;;;;;;25.58;17.95;;;6.40;90.30;;;;;;5054864;28;20185;-61
2022/03/26 02:47:07;;;;;;;27.00;19.92;;;6.20;90.00;;;;;;5066393;28;20196;-61
2022/03/26 02:49:33;;;;;;;27.75;20.15;;;6.20;90.00;;;;;;5056185;28;20264;-61
2022/03/26 02:51:58;;;;;;;28.77;19.63;;;6.00;90.20;;;;;;5057080;28;20316;-60
2022/03/26 02:54:24;;;;;;;27.27;19.83;;;6.10;90.50;;;;;;5059497;28;20923;-60
2022/03/26 02:56:52;;;;;;;23.83;18.23;;;6.20;90.50;;;;;;5062898;28;20209;-60
2022/03/26 02:59:18;;;;;;;27.80;20.95;;;6.00;90.70;;;;;;5063443;28;20184;-61
2022/03/26 03:01:44;;;;;;;28.42;19.73;;;6.30;90.70;;;;;;5070067;28;20216;-60
2022/03/26 03:04:10;;;;;;;26.70;19.52;;;5.90;90.50;;;;;;5062099;28;20191;-60
2022/03/26 03:06:36;;;;;;;29.70;20.43;;;6.10;90.80;;;;;;5062044;28;20654;-60
2022/03/26 03:09:04;;;;;;;27.37;18.90;;;5.80;91.10;;;;;;5067421;28;20557;-61
2022/03/26 03:11:29;;;;;;;28.27;20.17;;;6.20;91.40;;;;;;5070789;28;20278;-61
2022/03/26 03:13:55;;;;;;;23.40;18.70;;;6.10;91.10;;;;;;5065545;28;20216;-60
2022/03/26 03:16:21;;;;;;;28.30;20.43;;;6.00;91.00;;;;;;5064226;28;20230;-60
2022/03/26 03:18:46;;;;;;;32.23;21.70;;;6.00;91.40;;;;;;5062757;28;20952;-60
2022/03/26 03:21:12;;;;;;;27.00;19.80;;;5.80;91.30;;;;;;5054980;28;20737;-61
2022/03/26 03:23:38;;;;;;;29.13;19.67;;;5.50;91.30;;;;;;5059968;28;20177;-60
2022/03/26 03:26:04;;;;;;;31.53;19.57;;;5.90;91.60;;;;;;5060937;28;20272;-60
2022/03/26 03:28:30;;;;;;;27.73;18.83;;;5.50;91.50;;;;;;5061223;28;20230;-60
2022/03/26 03:30:55;;;;;;;26.03;19.33;;;5.70;91.80;;;;;;5063507;28;20210;-60
2022/03/26 03:33:21;;;;;;;27.00;20.23;;;5.40;92.20;;;;;;5056413;28;20216;-61
2022/03/26 03:35:47;;;;;;;26.33;19.10;;;5.60;92.00;;;;;;5056250;28;20188;-60
2022/03/26 03:38:12;;;;;;;27.47;19.70;;;5.50;92.00;;;;;;5066600;28;20458;-60
2022/03/26 03:40:38;;;;;;;28.27;20.10;;;5.80;92.10;;;;;;5061834;28;20191;-60
2022/03/26 03:43:05;;;;;;;26.40;19.00;;;5.30;92.20;;;;;;5053888;28;20216;-60
2022/03/26 03:45:31;;;;;;;27.80;20.15;;;5.70;92.50;;;;;;5060288;28;20195;-60
2022/03/26 03:47:56;;;;;;;26.57;18.87;;;5.70;92.50;;;;;;5061962;28;20197;-60
2022/03/26 03:50:22;;;;;;;28.97;19.40;;;5.30;92.10;;;;;;5063324;28;20455;-60
2022/03/26 03:52:48;;;;;;;28.10;19.40;;;5.60;92.50;;;;;;5064864;28;20208;-60
2022/03/26 03:55:13;;;;;;;32.50;21.70;;;5.20;92.40;;;;;;5053304;28;20196;-60
2022/03/26 03:57:43;;;;;;;28.43;19.40;;;5.10;92.60;;;;;;5067509;28;20446;-60
2022/03/26 04:00:11;;;;;;;29.00;19.00;;;5.60;92.80;;;;;;5070023;28;20662;-60
2022/03/26 04:02:37;;;;;;;29.02;19.98;;;5.30;92.80;;;;;;5057543;28;20637;-60
2022/03/26 04:05:03;;;;;;;32.97;20.73;;;5.40;92.90;;;;;;5058022;28;20303;-60
2022/03/26 04:07:29;;;;;;;29.55;19.95;;;5.30;93.10;;;;;;5062366;28;20202;-61
2022/03/26 04:09:55;;;;;;;27.70;20.00;;;5.00;93.00;;;;;;5044025;28;20653;-61
2022/03/26 04:12:20;;;;;;;29.58;19.27;;;4.80;93.20;;;;;;5061114;28;20212;-60
2022/03/26 04:14:46;;;;;;;26.47;18.87;;;5.50;93.60;;;;;;5056907;28;20178;-61
2022/03/26 04:17:12;;;;;;;31.17;19.37;;;5.40;93.30;;;;;;5065677;28;20182;-60
2022/03/26 04:19:39;;;;;;;26.23;18.75;;;5.40;93.40;;;;;;5065785;28;20205;-61
2022/03/26 04:22:08;;;;;;;31.05;18.15;;;5.30;93.60;;;;;;5066508;28;20222;-60
2022/03/26 04:24:35;;;;;;;26.63;19.00;;;5.50;93.60;;;;;;5063259;28;20184;-60
2022/03/26 04:27:02;;;;;;;28.23;17.98;;;5.40;93.40;;;;;;5062895;28;20191;-60
2022/03/26 04:29:27;;;;;;;26.00;17.48;;;5.50;93.80;;;;;;5062420;28;20179;-60
2022/03/26 04:31:54;;;;;;;29.40;19.60;;;4.90;93.60;;;;;;5055885;28;20221;-60
2022/03/26 04:34:20;;;;;;;27.33;20.45;;;5.30;93.90;;;;;;5059712;28;20188;-60
2022/03/26 04:36:45;;;;;;;27.97;19.00;;;5.20;94.00;;;;;;5054673;28;20561;-60
2022/03/26 04:39:11;;;;;;;26.03;19.77;;;5.10;93.90;;;;;;5062769;28;20433;-60
2022/03/26 04:41:36;;;;;;;28.23;19.43;;;4.70;93.90;;;;;;5055734;28;20270;-60
2022/03/26 04:44:02;;;;;;;28.53;19.47;;;5.30;94.10;;;;;;5049271;28;20209;-60
2022/03/26 04:46:28;;;;;;;28.00;19.45;;;5.00;94.10;;;;;;5058771;28;20279;-60
2022/03/26 04:48:54;;;;;;;29.20;20.03;;;5.20;94.10;;;;;;5054143;28;20197;-61
2022/03/26 04:51:20;;;;;;;29.10;19.00;;;5.00;94.00;;;;;;5056170;28;20632;-60
2022/03/26 04:53:45;;;;;;;30.43;19.77;;;5.20;94.00;;;;;;5066669;28;20186;-60
2022/03/26 04:56:11;;;;;;;30.47;19.13;;;4.90;94.00;;;;;;5045652;28;20446;-60
2022/03/26 04:58:37;;;;;;;28.67;18.40;;;5.30;94.60;;;;;;5054451;28;20321;-60
2022/03/26 05:01:02;;;;;;;27.43;20.23;;;4.80;93.90;;;;;;5065330;28;20196;-62
2022/03/26 05:03:28;;;;;;;25.80;19.27;;;4.50;94.40;;;;;;5057272;28;20189;-62
2022/03/26 05:05:54;;;;;;;33.50;18.33;;;5.00;94.60;;;;;;5055585;28;20670;-60
2022/03/26 05:08:20;;;;;;;27.00;19.20;;;5.00;94.90;;;;;;5050507;28;20462;-62
2022/03/26 05:10:46;;;;;;;29.70;19.73;;;4.80;95.00;;;;;;5039886;28;20284;-60
2022/03/26 05:13:11;;;;;;;27.17;18.58;;;5.10;95.10;;;;;;5058043;28;20221;-60
2022/03/26 05:15:37;;;;;;;28.90;19.90;;;4.20;94.70;;;;;;5059112;28;20546;-60
2022/03/26 05:18:03;;;;;;;26.03;18.33;;;5.00;94.90;;;;;;5061700;28;20235;-60
2022/03/26 05:20:29;;;;;;;30.83;19.42;;;5.00;95.00;;;;;;5055976;28;20596;-60
2022/03/26 05:22:54;;;;;;;28.00;20.40;;;5.00;95.20;;;;;;5054792;28;20296;-60
2022/03/26 05:25:20;;;;;;;28.00;19.70;;;4.40;95.00;;;;;;5064897;28;20218;-60
2022/03/26 05:27:47;;;;;;;28.60;19.83;;;4.90;95.50;;;;;;5060323;28;20207;-60
2022/03/26 05:30:13;;;;;;;28.55;19.30;;;4.30;95.40;;;;;;5055594;28;20665;-60
2022/03/26 05:32:39;;;;;;;29.58;19.27;;;4.50;95.30;;;;;;5056117;28;20278;-60
2022/03/26 05:35:11;;;;;;;26.50;17.38;;;4.30;94.90;;;;;;5055060;28;20219;-62
2022/03/26 05:37:38;;;;;;;30.73;19.90;;;4.90;94.70;;;;;;5057457;28;20662;-60
2022/03/26 05:40:04;;;;;;;28.45;19.35;;;5.20;95.30;;;;;;5063407;28;20278;-60
2022/03/26 05:42:30;;;;;;;27.58;19.17;;;4.80;95.20;;;;;;5061063;28;20224;-60
2022/03/26 05:44:56;;;;;;;28.00;19.40;;;4.90;95.20;;;;;;5060715;28;20190;-61
2022/03/26 05:47:23;;;;;;;27.87;19.20;;;4.70;95.20;;;;;;5040869;28;20495;-61
2022/03/26 05:49:49;;;;;;;30.80;19.75;;;5.00;95.40;;;;;;5038427;28;20449;-61
2022/03/26 05:52:15;;;;;;;31.33;20.27;;;5.00;95.40;;;;;;5058178;28;20213;-61
2022/03/26 05:54:42;;;;;;;23.23;17.63;;;4.80;95.40;;;;;;5059665;28;20551;-62
2022/03/26 05:57:08;;;;;;;27.08;20.08;;;5.00;95.50;;;;;;5059361;28;20217;-61
2022/03/26 05:59:33;;;;;;;29.23;20.97;;;4.60;95.40;;;;;;5056104;28;20211;-61
2022/03/26 06:01:59;;;;;;;28.23;19.87;;;4.70;95.50;;;;;;5037727;28;20227;-61
2022/03/26 06:04:24;;;;;;;27.80;18.70;;;4.40;95.50;;;;;;5057697;28;20217;-61
2022/03/26 06:06:50;;;;;;;27.30;18.67;;;4.90;95.50;;;;;;5059662;28;20187;-61
2022/03/26 06:09:16;;;;;;;26.50;18.20;;;5.10;95.40;;;;;;5061714;28;20184;-61
2022/03/26 06:11:41;;;;;;;26.00;18.97;;;5.50;95.50;;;;;;5056626;28;20762;-61
2022/03/26 06:14:07;;;;;;;33.27;18.73;;;5.30;95.40;;;;;;5058359;28;20175;-61
2022/03/26 06:16:34;;;;;;;30.50;20.43;;;5.30;95.20;;;;;;5056468;28;20203;-61
2022/03/26 06:19:00;;;;;;;25.50;18.98;;;5.30;95.10;;;;;;5055911;28;20181;-62
2022/03/26 06:21:28;;;;;;;30.83;19.55;;;5.30;95.20;;;;;;5051411;28;20209;-61
2022/03/26 06:23:57;;;;;;;27.98;20.02;;;5.40;95.10;;;;;;5061673;28;20187;-61
2022/03/26 06:26:22;;;;;;;29.98;20.63;;;5.40;94.80;;;;;;5058826;28;20219;-61
2022/03/26 06:28:48;;;;;;;30.03;19.60;;;4.90;94.50;;;;;;5057929;28;20200;-61
2022/03/26 06:31:14;;;;;;;35.37;23.40;;;5.40;94.70;;;;;;5068294;28;20261;-61
2022/03/26 06:33:39;;;;;;;25.13;19.20;;;5.90;94.60;;;;;;5064596;28;20188;-61
2022/03/26 06:36:05;;;;;;;26.33;18.90;;;5.90;94.00;;;;;;5060761;28;20185;-61
2022/03/26 06:38:32;;;;;;;25.90;18.58;;;5.90;93.80;;;;;;5063178;28;20181;-60
2022/03/26 06:40:58;;;;;;;26.27;18.70;;;6.20;92.70;;;;;;5067412;28;20196;-61
2022/03/26 06:43:24;;;;;;;32.03;21.83;;;5.60;92.90;;;;;;5061187;28;20239;-60
2022/03/26 06:45:50;;;;;;;29.65;19.85;;;6.20;93.00;;;;;;5064741;28;20190;-61
2022/03/26 06:48:16;;;;;;;26.83;19.53;;;6.70;93.10;;;;;;5072036;28;20675;-60
2022/03/26 06:50:42;;;;;;;37.90;21.63;;;6.70;92.50;;;;;;5055340;28;20496;-61
2022/03/26 06:53:07;;;;;;;29.50;20.37;;;6.50;91.90;;;;;;5061554;28;20291;-61
2022/03/26 06:55:33;;;;;;;29.80;20.17;;;7.00;91.50;;;;;;5060746;28;21310;-61
2022/03/26 06:57:59;;;;;;;30.27;20.80;;;7.40;91.10;;;;;;5056204;28;20255;-62
2022/03/26 07:00:24;;;;;;;29.70;20.40;;;8.00;90.70;;;;;;5048979;28;20671;-61
2022/03/26 07:02:50;;;;;;;29.00;20.80;;;8.30;89.70;;;;;;5054738;28;20496;-61
2022/03/26 07:05:15;;;;;;;29.57;20.30;;;8.80;87.30;;;;;;5056142;28;20195;-61
2022/03/26 07:07:41;;;;;;;25.00;19.00;;;10.10;83.00;;;;;;5044256;28;20193;-61
2022/03/26 07:10:08;;;;;;;27.90;21.00;;;12.10;77.70;;;;;;5065175;28;20185;-62
2022/03/26 07:12:34;;;;;;;29.50;20.80;;;14.20;69.10;;;;;;5056915;28;20475;-61
2022/03/26 07:15:00;;;;;;;27.70;20.50;;;16.00;61.40;;;;;;5058084;28;20543;-62
2022/03/26 07:17:26;;;;;;;32.33;20.90;;;17.80;55.90;;;;;;5054280;28;20276;-62
2022/03/26 07:19:51;;;;;;;28.17;21.67;;;18.70;50.80;;;;;;5055023;28;20654;-61
2022/03/26 07:22:18;;;;;;;26.13;21.60;;;19.80;48.80;;;;;;5040921;28;20202;-61
2022/03/26 07:24:43;;;;;;;30.00;22.60;;;19.10;48.30;;;;;;5057187;28;20190;-61
2022/03/26 07:27:09;;;;;;;28.67;21.63;;;20.20;45.80;;;;;;5061109;28;20234;-61
2022/03/26 07:29:38;;;;;;;25.33;21.80;;;20.30;44.80;;;;;;5053593;28;20269;-62
2022/03/26 07:32:05;;;;;;;30.85;22.98;;;20.90;43.80;;;;;;5056408;28;20471;-60
2022/03/26 07:34:31;;;;;;;26.23;22.50;;;21.20;42.10;;;;;;5037582;28;20181;-61
2022/03/26 07:36:56;;;;;;;28.73;22.83;;;21.10;40.70;;;;;;5069020;28;20535;-61
2022/03/26 07:39:22;;;;;;;27.17;22.37;;;20.30;41.60;;;;;;5059456;28;20184;-60
2022/03/26 07:41:48;;;;;;;26.33;22.93;;;19.60;42.60;;;;;;5062199;28;20251;-60
2022/03/26 07:44:14;;;;;;;25.30;21.30;;;20.50;42.10;;;;;;5060667;28;20536;-60
2022/03/26 07:46:39;;;;;;;24.83;22.13;;;21.00;41.20;;;;;;5058761;28;20440;-61
2022/03/26 07:49:06;;;;;;;30.23;24.90;;;21.80;40.30;;;;;;5060989;28;20198;-61
2022/03/26 07:51:32;;;;;;;27.73;23.03;;;22.20;40.00;;;;;;5057853;28;20674;-62
2022/03/26 07:53:58;;;;;;;29.30;23.73;;;22.60;39.20;;;;;;5061771;28;20953;-61
2022/03/26 07:56:23;;;;;;;27.33;22.93;;;23.00;38.20;;;;;;5064349;28;20428;-62
2022/03/26 07:58:49;;;;;;;26.50;22.93;;;22.00;38.50;;;;;;5054948;28;20190;-62
2022/03/26 08:01:15;;;;;;;26.20;22.80;;;22.30;38.70;;;;;;5057904;28;20313;-61
2022/03/26 08:03:41;;;;;;;27.43;23.87;;;19.40;39.80;;;;;;5057925;28;20200;-62
2022/03/26 08:06:06;;;;;;;28.83;22.10;;;21.30;40.90;;;;;;5055582;28;20443;-62
2022/03/26 08:08:32;;;;;;;26.57;22.80;;;22.20;38.30;;;;;;5057639;28;20646;-62
2022/03/26 08:10:58;;;;;;;26.90;21.67;;;23.10;37.80;;;;;;5057800;28;20241;-62
2022/03/26 08:13:23;;;;;;;27.83;22.80;;;24.20;36.20;;;;;;5063053;28;20288;-62
2022/03/26 08:15:49;;;;;;;28.47;22.90;;;23.70;35.70;;;;;;5055718;28;21299;-61
2022/03/26 08:18:16;;;;;;;32.73;24.03;;;23.30;35.20;;;;;;5063295;28;20181;-62
2022/03/26 08:20:43;;;;;;;26.13;22.47;;;23.00;35.80;;;;;;5051494;28;20277;-61
2022/03/26 08:23:08;;;;;;;27.40;24.13;;;23.40;36.20;;;;;;5057475;28;20872;-61
2022/03/26 08:28:18;;;;;;;30.07;25.37;;;24.70;34.40;;;;;;5058038;28;20580;-61
2022/03/26 08:30:44;;;;;;;29.37;24.37;;;23.60;34.50;;;;;;5059457;28;20445;-61
2022/03/26 08:33:09;;;;;;;28.30;24.50;;;23.60;35.40;;;;;;5052476;28;20220;-61
2022/03/26 08:35:38;;;;;;;23.70;20.43;;;24.30;35.30;;;;;;5052095;28;20306;-61
2022/03/26 08:38:04;;;;;;;23.60;19.90;;;24.90;35.40;;;;;;5062167;28;20193;-62
2022/03/26 08:40:33;;;;;;;27.70;23.23;;;25.00;36.00;;;;;;5041482;28;20457;-62
2022/03/26 08:43:01;;;;;;;26.03;20.90;;;24.90;33.60;;;;;;5058420;28;20227;-63
2022/03/26 08:45:27;;;;;;;27.50;24.57;;;24.90;35.00;;;;;;5053754;28;20592;-62
2022/03/26 08:47:53;;;;;;;27.67;24.67;;;25.70;33.10;;;;;;5062911;28;20978;-61
2022/03/26 08:50:19;;;;;;;27.77;24.50;;;25.60;31.90;;;;;;5054790;28;20438;-61
2022/03/26 08:52:48;;;;;;;31.10;25.00;;;24.90;33.10;;;;;;5051635;28;20865;-65
2022/03/26 08:55:18;;;;;;;40.03;33.30;;;24.90;33.40;;;;;;5052474;28;20177;-65
2022/03/26 08:57:44;;;;;;;28.47;23.50;;;24.80;33.10;;;;;;5064578;28;20442;-65
2022/03/26 09:00:12;;;;;;;29.97;23.57;;;24.00;33.50;;;;;;5054564;28;20483;-65
2022/03/26 09:02:38;;;;;;;27.67;23.80;;;23.30;34.30;;;;;;5051583;28;20501;-72
2022/03/26 09:05:08;;;;;;;29.63;24.17;;;22.90;34.60;;;;;;5042007;28;20443;-67
2022/03/26 09:07:35;;;;;;;27.53;23.73;;;22.50;36.00;;;;;;5064342;28;20455;-65
2022/03/26 09:10:00;;;;;;;27.67;23.33;;;22.00;35.50;;;;;;5060799;28;20435;-63
2022/03/26 09:12:26;;;;;;;27.10;22.93;;;22.10;36.10;;;;;;5052170;28;20478;-68
2022/03/26 09:14:52;;;;;;;26.10;22.10;;;22.00;35.80;;;;;;5060363;28;20804;-70
2022/03/26 09:17:17;;;;;;;29.77;23.57;;;21.90;36.00;;;;;;5063186;28;20295;-72
2022/03/26 09:19:43;;;;;;;32.10;22.33;;;21.70;36.80;;;;;;5054495;28;20220;-68
2022/03/26 09:22:09;;;;;;;28.47;24.33;;;21.90;36.80;;;;;;5066227;28;20261;-70
2022/03/26 09:24:35;;;;;;;27.33;23.63;;;22.20;36.10;;;;;;5039320;28;20264;-68
2022/03/26 09:27:00;;;;;;;29.50;24.13;;;22.20;36.20;;;;;;5045938;28;20916;-66
2022/03/26 09:29:26;;;;;;;25.40;21.87;;;22.50;36.00;;;;;;5055826;28;20444;-68
2022/03/26 09:31:52;;;;;;;27.60;23.73;;;22.40;35.90;;;;;;5054509;28;20296;-65
2022/03/26 09:34:17;;;;;;;28.67;23.10;;;22.20;35.90;;;;;;5051198;28;20516;-66
2022/03/26 09:36:43;;;;;;;27.40;22.87;;;22.90;36.40;;;;;;5054722;28;20185;-64
2022/03/26 09:39:09;;;;;;;27.50;23.90;;;23.30;35.20;;;;;;5056966;28;20181;-66
2022/03/26 09:41:35;;;;;;;27.40;23.90;;;23.40;35.00;;;;;;5065675;28;20212;-68
2022/03/26 09:44:02;;;;;;;28.93;25.30;;;23.20;35.20;;;;;;5065900;28;20195;-68
2022/03/26 09:46:28;;;;;;;27.00;24.10;;;23.40;34.90;;;;;;5059769;28;20441;-68
2022/03/26 09:48:54;;;;;;;28.13;24.17;;;23.00;35.50;;;;;;5036229;28;20517;-68
2022/03/26 09:51:23;;;;;;;30.03;24.83;;;23.80;35.00;;;;;;5058956;28;20517;-65
2022/03/26 09:53:53;;;;;;;30.30;24.60;;;24.20;34.80;;;;;;5035209;28;20459;-64
2022/03/26 09:56:20;;;;;;;29.33;22.57;;;24.90;33.30;;;;;;5053979;28;20955;-63
2022/03/26 09:58:46;;;;;;;30.83;23.37;;;25.40;33.70;;;;;;5058853;28;20452;-63
2022/03/26 10:01:12;;;;;;;29.63;25.20;;;24.50;34.00;;;;;;5058138;28;21293;-62
2022/03/26 10:03:41;;;;;;;27.30;24.27;;;24.50;33.10;;;;;;5054536;28;20451;-65
2022/03/26 10:06:07;;;;;;;34.93;25.40;;;25.40;33.60;;;;;;5047578;28;20231;-63
2022/03/26 10:08:39;;;;;;;28.03;24.83;;;26.50;31.90;;;;;;5058358;28;20878;-63
2022/03/26 10:11:09;;;;;;;28.37;24.27;;;26.80;31.60;;;;;;5056895;28;20436;-63
2022/03/26 10:13:39;;;;;;;28.47;25.27;;;27.50;30.50;;;;;;5055522;28;20574;-63
2022/03/26 10:16:06;;;;;;;28.60;25.40;;;28.00;30.50;;;;;;5039326;28;20534;-63
2022/03/26 10:18:37;;;;;;;27.90;24.77;;;27.60;30.20;;;;;;5060973;28;20430;-62
2022/03/26 10:21:06;;;;;;;28.20;25.07;;;25.90;31.40;;;;;;5055217;28;20958;-63
2022/03/26 10:23:32;;;;;;;29.90;25.83;;;26.80;31.50;;;;;;5057084;28;20471;-62
2022/03/26 10:26:09;;;;;;;37.83;26.20;;;26.00;32.40;;;;;;5062698;28;20436;-63
2022/03/26 10:28:36;;;;;;;30.97;25.60;;;25.80;31.90;;;;;;5055594;28;20213;-64
2022/03/26 10:34:20;;;;;;;30.33;25.90;;;24.70;33.50;;;;;;5058409;28;21004;-63
2022/03/26 10:37:01;;;;;;;31.60;25.83;;;23.90;33.70;;;;;;5045584;28;20432;-65
2022/03/26 10:39:29;;;;;;;30.50;26.30;;;24.10;34.10;;;;;;5064478;28;20450;-62
2022/03/26 10:41:56;;;;;;;32.10;25.90;;;24.10;34.00;;;;;;5072095;28;20537;-63
2022/03/26 10:44:27;;;;;;;30.47;26.07;;;23.80;34.90;;;;;;5055445;28;20467;-61
2022/03/26 10:46:54;;;;;;;27.77;23.57;;;24.20;34.30;;;;;;5056378;28;20540;-59
2022/03/26 10:49:27;;;;;;;27.53;24.60;;;24.70;34.20;;;;;;5057317;28;20439;-59
2022/03/26 10:51:54;;;;;;;30.03;25.57;;;25.00;33.40;;;;;;5060678;28;20831;-58
2022/03/26 10:54:30;;;;;;;29.87;24.63;;;24.80;33.10;;;;;;5057101;28;20982;-60
2022/03/26 10:57:00;;;;;;;28.60;24.37;;;24.30;32.80;;;;;;5063309;28;20432;-58
2022/03/26 10:59:27;;;;;;;30.40;24.70;;;24.60;33.30;;;;;;5057490;28;20463;-58
2022/03/26 11:01:53;;;;;;;29.80;25.27;;;24.60;33.10;;;;;;5058730;28;20538;-58
2022/03/26 11:04:19;;;;;;;29.93;24.43;;;24.40;34.00;;;;;;5055095;28;20484;-59
2022/03/26 11:06:47;;;;;;;31.43;24.17;;;23.30;34.10;;;;;;5061464;28;20178;-59
2022/03/26 11:09:17;;;;;;;29.67;22.73;;;24.20;34.70;;;;;;5052136;28;21131;-58
2022/03/26 11:11:47;;;;;;;28.90;23.33;;;25.60;32.80;;;;;;5060295;28;20462;-58
2022/03/26 11:14:24;;;;;;;27.13;22.37;;;26.30;31.50;;;;;;5054570;28;20593;-58
2022/03/26 11:17:12;;;;;;;29.90;24.50;;;25.60;30.40;;;;;;5057202;28;20511;-58
2022/03/26 11:20:15;;;;;;;28.30;22.13;;;25.60;32.40;;;;;;5057610;28;20824;-58
2022/03/26 11:22:52;;;;;;;27.30;22.17;;;26.10;30.80;;;;;;5067020;28;20450;-59
2022/03/26 11:25:53;;;;;;;27.07;23.77;;;26.60;29.40;;;;;;5057237;28;20838;-59
2022/03/26 11:28:37;;;;;;;27.13;23.03;;;26.20;30.00;;;;;;5056604;28;20461;-59
2022/03/26 11:31:24;;;;;;;27.50;21.67;;;25.40;29.60;;;;;;5059410;28;20420;-59
2022/03/26 11:34:00;;;;;;;27.90;23.33;;;25.40;30.00;;;;;;5063506;28;20502;-59
2022/03/26 11:36:27;;;;;;;25.87;22.90;;;24.80;29.80;;;;;;5055277;28;20441;-58
2022/03/26 11:39:08;;;;;;;25.47;21.77;;;24.80;30.80;;;;;;5062628;28;20442;-59
2022/03/26 11:41:35;;;;;;;23.97;20.63;;;24.70;30.30;;;;;;5060599;28;20457;-62
2022/03/26 11:44:01;;;;;;;27.63;21.60;;;24.80;30.20;;;;;;5061944;28;20438;-59
2022/03/26 11:52:30;;;;;;;25.23;22.40;;;25.20;30.00;;;;;;5053856;28;20552;-59
2022/03/26 11:55:10;;;;;;;26.53;21.13;;;24.70;30.00;;;;;;5055870;28;20452;-59
2022/03/26 11:57:36;;;;;;;31.80;20.50;;;24.60;30.20;;;;;;5062308;28;20993;-58
2022/03/26 12:00:14;;;;;;;24.57;20.23;;;23.50;30.00;;;;;;5061822;28;20434;-58
2022/03/26 12:02:51;;;;;;;21.97;18.67;;;24.00;30.00;;;;;;5056255;28;20736;-60
2022/03/26 12:08:19;;;;;;;21.73;17.70;;;23.40;29.60;;;;;;5058628;28;20511;-60
2022/03/26 12:10:46;;;;;;;21.93;18.20;;;22.90;30.00;;;;;;5052870;28;20431;-59
2022/03/26 12:13:22;;;;;;;22.80;18.63;;;22.50;30.50;;;;;;5058446;28;20451;-59
2022/03/26 12:16:02;;;;;;;26.33;18.37;;;22.40;31.10;;;;;;5040539;28;20434;-59
2022/03/26 12:18:37;;;;;;;20.90;18.30;;;22.00;31.50;;;;;;5062034;28;20513;-59
2022/03/26 12:21:08;;;;;;;23.90;18.60;;;22.00;31.80;;;;;;5057318;28;21228;-59
2022/03/26 12:23:34;;;;;;;23.37;18.70;;;22.00;32.00;;;;;;5058843;28;20454;-59
2022/03/26 12:26:07;;;;;;;18.83;16.70;;;21.90;31.80;;;;;;5056117;28;20439;-59
2022/03/26 12:28:38;;;;;;;21.17;17.33;;;22.00;31.70;;;;;;5054572;28;20450;-59
2022/03/26 12:31:06;;;;;;;20.42;16.45;;;21.80;31.20;;;;;;5055716;28;20446;-59
2022/03/26 12:33:43;;;;;;;19.47;16.50;;;21.60;31.40;;;;;;5065299;28;20231;-59
2022/03/26 12:36:10;;;;;;;19.52;16.00;;;21.60;31.30;;;;;;5055875;28;20443;-60
2022/03/26 12:38:35;;;;;;;18.15;15.60;;;21.40;31.20;;;;;;5060789;28;20265;-59
2022/03/26 12:41:06;;;;;;;17.13;15.30;;;21.30;30.70;;;;;;5058833;28;20261;-59
2022/03/26 12:43:32;;;;;;;19.65;15.55;;;21.40;30.30;;;;;;5055539;28;20182;-60
2022/03/26 12:45:59;;;;;;;19.83;14.80;;;21.10;30.70;;;;;;5058217;28;20292;-59
2022/03/26 12:48:29;;;;;;;19.58;15.40;;;21.10;30.90;;;;;;5057365;28;20189;-59